Time;durP1;ratioP1;P1;durP2;ratioP2;P2;SDS_P1;SDS_P2;PMS_P1;PMS_P2;Temp;Humidity;BMP_temperature;BMP_pressure;BME280_temperature;BME280_humidity;BME280_pressure;Samples;Min_cycle;Max_cycle;Signal;HPM_P1;HPM_P2
2023/08/01 00:01:03;;;;;;;2.15;2.05;;;;;;;21.82;56.50;94572.84;5115536;28;20195;-69
2023/08/01 00:03:34;;;;;;;2.20;2.10;;;;;;;21.83;57.08;94573.63;5114912;28;20220;-69
2023/08/01 00:06:02;;;;;;;2.42;2.22;;;;;;;21.78;57.11;94560.13;5115538;28;20218;-69
2023/08/01 00:08:32;;;;;;;2.28;1.98;;;;;;;21.76;57.30;94571.78;5115341;28;20214;-69
2023/08/01 00:11:00;;;;;;;2.40;2.20;;;;;;;21.77;57.28;94570.56;5115013;28;20200;-69
2023/08/01 00:13:27;;;;;;;2.40;2.20;;;;;;;21.79;56.97;94570.13;5114982;28;20203;-69
2023/08/01 00:15:57;;;;;;;2.25;2.05;;;;;;;21.78;57.27;94562.91;5115010;28;20615;-69
2023/08/01 00:18:25;;;;;;;2.67;2.40;;;;;;;21.75;57.68;94567.41;5115384;28;20227;-69
2023/08/01 00:20:54;;;;;;;2.60;2.40;;;;;;;21.75;57.82;94561.81;5114835;28;20208;-69
2023/08/01 00:23:21;;;;;;;2.40;2.20;;;;;;;21.68;58.16;94561.16;5114299;28;20263;-69
2023/08/01 00:25:51;;;;;;;2.50;2.30;;;;;;;21.59;59.21;94561.78;5115057;28;20187;-69
2023/08/01 00:28:21;;;;;;;2.50;2.30;;;;;;;21.55;59.09;94556.25;5115375;28;20191;-69
2023/08/01 00:30:51;;;;;;;2.50;2.30;;;;;;;21.51;58.94;94563.97;5114982;28;20619;-69
2023/08/01 00:33:19;;;;;;;2.30;2.20;;;;;;;21.50;58.52;94553.97;5115663;28;20223;-69
2023/08/01 00:35:54;;;;;;;2.35;2.15;;;;;;;21.51;58.30;94560.38;5114903;28;20191;-69
2023/08/01 00:38:22;;;;;;;2.55;2.22;;;;;;;21.55;57.89;94561.06;5115253;28;20195;-69
2023/08/01 00:40:51;;;;;;;2.50;2.30;;;;;;;21.56;57.73;94559.84;5114619;28;20192;-69
2023/08/01 00:43:17;;;;;;;2.40;2.20;;;;;;;21.61;57.40;94557.31;5115009;28;20215;-69
2023/08/01 00:45:47;;;;;;;2.83;2.38;;;;;;;21.61;57.20;94565.72;5114703;28;20200;-69
2023/08/01 00:48:18;;;;;;;3.90;2.30;;;;;;;21.55;57.61;94559.03;5114648;28;20530;-69
2023/08/01 00:50:46;;;;;;;2.22;2.13;;;;;;;21.54;58.58;94556.69;5114716;28;20196;-68
2023/08/01 00:53:17;;;;;;;2.40;2.20;;;;;;;21.50;58.06;94558.78;5114760;28;20195;-68
2023/08/01 00:55:44;;;;;;;2.50;2.30;;;;;;;21.46;58.73;94549.63;5114613;28;20196;-68
2023/08/01 00:58:12;;;;;;;2.30;2.10;;;;;;;21.45;58.55;94548.84;5114424;28;20550;-68
2023/08/01 01:00:40;;;;;;;6.38;2.38;;;;;;;21.45;58.59;94545.25;5114548;28;20199;-69
2023/08/01 01:03:08;;;;;;;2.28;2.17;;;;;;;21.44;58.27;94546.50;5114314;28;20205;-68
2023/08/01 01:05:41;;;;;;;2.38;2.10;;;;;;;21.46;57.42;94542.03;5114616;28;20200;-69
2023/08/01 01:08:09;;;;;;;2.40;2.20;;;;;;;21.45;56.53;94545.25;5114927;28;20270;-69
2023/08/01 01:10:37;;;;;;;2.20;2.10;;;;;;;21.44;56.49;94549.31;5114769;28;20196;-68
2023/08/01 01:13:05;;;;;;;2.63;2.42;;;;;;;21.45;57.11;94546.06;5114432;28;20199;-69
2023/08/01 01:15:32;;;;;;;2.70;2.50;;;;;;;21.45;56.50;94548.06;5114663;28;20191;-69
2023/08/01 01:17:59;;;;;;;3.42;2.38;;;;;;;21.44;56.29;94530.44;5115002;28;20199;-69
2023/08/01 01:20:35;;;;;;;2.42;2.22;;;;;;;21.42;56.23;94535.69;5114394;28;20211;-69
2023/08/01 01:23:05;;;;;;;2.30;2.13;;;;;;;21.46;56.54;94533.63;5114461;28;20195;-69
2023/08/01 01:25:36;;;;;;;3.60;2.30;;;;;;;21.44;55.71;94524.06;5114315;28;20211;-69
2023/08/01 01:28:05;;;;;;;2.45;2.22;;;;;;;21.43;55.60;94530.91;5115373;28;20210;-68
2023/08/01 01:30:33;;;;;;;2.40;2.20;;;;;;;21.41;55.53;94533.34;5098092;28;20199;-69
2023/08/01 01:33:03;;;;;;;2.40;2.20;;;;;;;21.39;55.22;94522.56;5114463;28;20231;-69
2023/08/01 01:35:30;;;;;;;2.78;2.20;;;;;;;21.37;55.26;94519.41;5101262;28;20232;-69
2023/08/01 01:38:05;;;;;;;2.10;2.00;;;;;;;21.38;55.45;94520.97;5118283;28;20210;-69
2023/08/01 01:40:34;;;;;;;2.33;2.20;;;;;;;21.35;54.93;94519.84;5118074;28;20266;-68
2023/08/01 01:43:05;;;;;;;2.70;2.45;;;;;;;21.35;55.15;94519.84;5118507;28;20195;-68
2023/08/01 01:45:33;;;;;;;2.70;2.30;;;;;;;21.34;55.32;94517.47;5117893;28;20217;-68
2023/08/01 01:48:01;;;;;;;2.40;2.20;;;;;;;21.33;55.40;94522.28;5118481;28;20199;-68
2023/08/01 01:50:29;;;;;;;2.10;2.00;;;;;;;21.32;54.98;94526.28;5118677;28;20294;-69
2023/08/01 01:53:02;;;;;;;2.30;2.10;;;;;;;21.30;54.51;94525.94;5118472;28;20560;-67
2023/08/01 01:55:30;;;;;;;2.50;2.30;;;;;;;21.29;55.06;94531.97;5117697;28;20195;-68
2023/08/01 01:57:59;;;;;;;2.60;2.40;;;;;;;21.27;54.62;94534.41;5117665;28;20612;-68
2023/08/01 02:00:27;;;;;;;5.15;2.20;;;;;;;21.22;54.53;94529.34;5117732;28;20199;-68
2023/08/01 02:02:55;;;;;;;2.42;2.22;;;;;;;21.22;55.16;94527.31;5118476;28;20523;-67
2023/08/01 02:05:21;;;;;;;2.38;2.22;;;;;;;21.18;54.91;94535.03;5117390;28;20219;-67
2023/08/01 02:07:48;;;;;;;2.15;2.03;;;;;;;21.16;55.25;94531.84;5117683;28;20191;-69
2023/08/01 02:10:16;;;;;;;3.72;2.13;;;;;;;21.05;56.31;94525.69;5118401;28;20536;-69
2023/08/01 02:12:44;;;;;;;2.95;2.28;;;;;;;20.94;57.24;94534.34;5117779;28;20206;-69
2023/08/01 02:15:12;;;;;;;2.45;2.20;;;;;;;20.87;57.98;94534.47;5117967;28;20196;-68
2023/08/01 02:17:40;;;;;;;2.60;2.40;;;;;;;20.86;57.84;94530.91;5117541;28;20199;-68
2023/08/01 02:20:09;;;;;;;3.05;2.20;;;;;;;20.84;56.66;94522.16;5117512;28;20200;-68
2023/08/01 02:22:39;;;;;;;2.50;2.30;;;;;;;20.85;56.70;94531.34;5117727;28;20196;-68
2023/08/01 02:25:08;;;;;;;2.63;2.42;;;;;;;20.86;56.69;94528.09;5117097;28;20532;-68
2023/08/01 02:27:41;;;;;;;2.50;2.30;;;;;;;20.87;55.70;94529.66;5117013;28;20196;-68
2023/08/01 02:30:11;;;;;;;2.67;2.20;;;;;;;20.88;56.11;94536.09;5117545;28;20210;-69
2023/08/01 02:32:39;;;;;;;3.65;2.40;;;;;;;20.88;55.86;94528.47;5117346;28;20286;-69
2023/08/01 02:35:07;;;;;;;3.50;2.72;;;;;;;20.88;55.54;94527.69;5116943;28;20202;-69
2023/08/01 02:37:34;;;;;;;2.75;2.35;;;;;;;20.88;55.76;94530.47;5116741;28;20195;-69
2023/08/01 02:40:07;;;;;;;2.55;2.35;;;;;;;20.85;56.21;94534.16;5116800;28;20195;-69
2023/08/01 02:42:37;;;;;;;4.10;2.40;;;;;;;20.76;57.36;94528.31;5117263;28;20203;-69
2023/08/01 02:45:07;;;;;;;3.83;2.70;;;;;;;20.71;57.86;94528.84;5116374;28;20222;-69
2023/08/01 02:47:35;;;;;;;2.72;2.53;;;;;;;20.61;58.31;94528.59;5116472;28;20204;-69
2023/08/01 02:50:02;;;;;;;2.42;2.15;;;;;;;20.51;58.50;94534.41;5116622;28;20223;-69
2023/08/01 02:52:33;;;;;;;2.97;2.58;;;;;;;20.49;58.63;94531.25;5117525;28;20224;-69
2023/08/01 02:55:01;;;;;;;4.10;2.60;;;;;;;20.41;58.79;94525.00;5117057;28;20235;-68
2023/08/01 02:57:29;;;;;;;4.05;2.50;;;;;;;20.38;58.94;94535.03;5116763;28;20195;-68
2023/08/01 02:59:55;;;;;;;2.67;2.40;;;;;;;20.38;58.45;94529.44;5116810;28;20195;-68
2023/08/01 03:02:25;;;;;;;2.75;2.55;;;;;;;20.36;58.55;94529.06;5116566;28;20196;-68
2023/08/01 03:04:52;;;;;;;2.80;2.60;;;;;;;20.38;58.05;94531.44;5116581;28;20227;-68
2023/08/01 03:07:19;;;;;;;2.58;2.38;;;;;;;20.38;58.58;94537.84;5116371;28;20197;-70
2023/08/01 03:09:49;;;;;;;3.47;2.78;;;;;;;20.37;59.06;94536.25;5116198;28;20202;-67
2023/08/01 03:12:19;;;;;;;2.95;2.40;;;;;;;20.34;59.53;94536.31;5116924;28;20295;-67
2023/08/01 03:14:47;;;;;;;2.67;2.35;;;;;;;20.29;59.52;94526.41;5117006;28;20627;-67
2023/08/01 03:17:17;;;;;;;4.07;2.75;;;;;;;20.25;59.16;94528.47;5116370;28;20196;-67
2023/08/01 03:19:52;;;;;;;4.43;2.67;;;;;;;20.24;59.15;94528.91;5116527;28;20206;-67
2023/08/01 03:22:23;;;;;;;5.32;2.78;;;;;;;20.18;59.96;94543.38;5116835;28;20606;-68
2023/08/01 03:24:51;;;;;;;4.13;2.80;;;;;;;20.17;59.70;94541.03;5115631;28;20320;-67
2023/08/01 03:27:19;;;;;;;5.15;2.80;;;;;;;20.17;59.58;94538.22;5115816;28;20184;-67
2023/08/01 03:29:49;;;;;;;3.05;2.70;;;;;;;20.14;59.94;94537.06;5116028;28;20192;-67
2023/08/01 03:32:16;;;;;;;4.25;2.72;;;;;;;20.12;59.76;94536.72;5116180;28;20199;-67
2023/08/01 03:34:48;;;;;;;3.25;2.88;;;;;;;20.10;60.06;94538.34;5116109;28;20195;-67
2023/08/01 03:37:19;;;;;;;3.15;2.78;;;;;;;20.06;60.05;94535.63;5115746;28;20210;-67
2023/08/01 03:39:49;;;;;;;8.10;3.35;;;;;;;20.02;59.91;94548.09;5115843;28;20199;-67
2023/08/01 03:42:19;;;;;;;4.75;2.78;;;;;;;19.95;59.71;94547.00;5116579;28;20248;-68
2023/08/01 03:44:47;;;;;;;4.75;3.08;;;;;;;19.90;59.39;94541.91;5116136;28;20507;-68
2023/08/01 03:47:15;;;;;;;4.00;2.95;;;;;;;19.88;59.92;94540.75;5115955;28;20192;-67
2023/08/01 03:49:43;;;;;;;4.18;2.72;;;;;;;19.87;59.48;94542.75;5115582;28;20204;-68
2023/08/01 03:52:15;;;;;;;5.32;2.80;;;;;;;19.90;59.52;94544.72;5116190;28;20184;-67
2023/08/01 03:54:43;;;;;;;6.65;3.10;;;;;;;19.93;59.36;94545.84;5115479;28;20210;-68
2023/08/01 03:57:11;;;;;;;3.80;3.25;;;;;;;19.87;59.47;94553.16;5115598;28;20196;-67
2023/08/01 03:59:42;;;;;;;5.97;3.67;;;;;;;19.82;58.91;94551.63;5115069;28;20204;-67
2023/08/01 04:02:12;;;;;;;5.22;3.67;;;;;;;19.78;59.31;94550.09;5115796;28;20199;-67
2023/08/01 04:04:40;;;;;;;4.47;3.45;;;;;;;19.78;59.63;94552.91;5115494;28;20246;-67
2023/08/01 04:07:14;;;;;;;4.97;3.28;;;;;;;19.84;59.62;94554.00;5115476;28;20192;-67
2023/08/01 04:09:42;;;;;;;4.93;3.20;;;;;;;19.89;59.14;94548.69;5115243;28;20192;-68
2023/08/01 04:12:11;;;;;;;3.60;2.75;;;;;;;19.94;59.57;94553.03;5115341;28;20541;-68
2023/08/01 04:14:40;;;;;;;2.90;2.70;;;;;;;19.98;59.17;94550.19;5115766;28;20214;-67
2023/08/01 04:17:09;;;;;;;3.80;2.92;;;;;;;19.99;59.46;94548.97;5115463;28;20619;-67
2023/08/01 04:19:39;;;;;;;4.32;2.70;;;;;;;20.00;59.59;94561.72;5115131;28;20203;-67
2023/08/01 04:22:09;;;;;;;3.22;2.92;;;;;;;19.94;59.91;94553.81;5115315;28;20608;-67
2023/08/01 04:24:38;;;;;;;3.90;3.15;;;;;;;19.90;59.82;94560.72;5114595;28;20231;-68
2023/08/01 04:27:06;;;;;;;3.80;3.40;;;;;;;19.92;60.23;94567.44;5115116;28;20206;-68
2023/08/01 04:29:38;;;;;;;4.53;3.50;;;;;;;19.91;59.85;94563.06;5115086;28;20245;-67
2023/08/01 04:32:12;;;;;;;4.10;3.10;;;;;;;19.90;59.68;94564.28;5114714;28;20256;-67
2023/08/01 04:34:40;;;;;;;3.17;2.97;;;;;;;19.87;59.21;94562.34;5114945;28;20202;-67
2023/08/01 04:37:07;;;;;;;3.55;3.25;;;;;;;19.86;59.41;94565.56;5114817;28;20285;-67
2023/08/01 04:39:37;;;;;;;4.60;3.10;;;;;;;19.84;59.25;94565.97;5114609;28;20191;-67
2023/08/01 04:42:07;;;;;;;3.53;2.78;;;;;;;19.83;59.53;94572.03;5114816;28;20566;-67
2023/08/01 04:44:37;;;;;;;3.33;3.03;;;;;;;19.80;59.80;94559.66;5114979;28;20231;-67
2023/08/01 04:47:06;;;;;;;3.58;3.28;;;;;;;19.80;59.94;94564.47;5115053;28;20192;-67
2023/08/01 04:49:34;;;;;;;3.03;2.55;;;;;;;19.79;59.70;94560.06;5114310;28;20210;-67
2023/08/01 04:52:03;;;;;;;3.05;2.85;;;;;;;19.78;59.56;94564.09;5115117;28;20195;-67
2023/08/01 04:54:33;;;;;;;3.90;3.40;;;;;;;19.74;59.95;94558.56;5114527;28;20200;-67
2023/08/01 04:57:01;;;;;;;3.42;3.13;;;;;;;19.73;59.50;94559.78;5114802;28;20207;-67
2023/08/01 04:59:29;;;;;;;4.13;3.42;;;;;;;19.74;59.89;94564.16;5114767;28;20192;-67
2023/08/01 05:01:57;;;;;;;3.45;3.15;;;;;;;19.74;59.61;94560.56;5115010;28;20547;-67
2023/08/01 05:04:26;;;;;;;3.50;3.20;;;;;;;19.74;60.41;94552.97;5114503;28;20217;-67
2023/08/01 05:06:54;;;;;;;4.75;2.90;;;;;;;19.76;60.25;94555.34;5114745;28;20204;-67
2023/08/01 05:09:21;;;;;;;3.92;2.70;;;;;;;19.78;60.30;94562.06;5116044;28;20203;-67
2023/08/01 05:11:52;;;;;;;3.20;3.00;;;;;;;19.79;59.56;94557.28;5118586;28;20202;-67
2023/08/01 05:14:20;;;;;;;3.63;2.90;;;;;;;19.76;59.71;94558.94;5119140;28;20192;-67
2023/08/01 05:16:56;;;;;;;3.17;2.88;;;;;;;19.81;59.92;94561.25;5118790;28;20202;-67
2023/08/01 05:19:25;;;;;;;3.58;2.90;;;;;;;19.85;60.02;94556.38;5119427;28;20191;-70
2023/08/01 05:21:53;;;;;;;3.05;2.75;;;;;;;19.86;59.43;94565.56;5118742;28;20211;-68
2023/08/01 05:24:22;;;;;;;3.45;3.05;;;;;;;19.91;59.88;94567.88;5118217;28;20239;-67
2023/08/01 05:26:52;;;;;;;4.20;3.20;;;;;;;19.89;60.24;94570.31;5118281;28;20196;-67
2023/08/01 05:29:20;;;;;;;2.85;2.65;;;;;;;19.89;60.33;94573.88;5118707;28;20203;-68
2023/08/01 05:31:49;;;;;;;3.33;3.03;;;;;;;19.88;60.27;94572.31;5118363;28;20203;-67
2023/08/01 05:34:19;;;;;;;4.03;3.05;;;;;;;19.90;60.12;94569.91;5118509;28;20206;-67
2023/08/01 05:36:50;;;;;;;3.47;3.03;;;;;;;19.93;60.29;94573.81;5119067;28;20180;-67
2023/08/01 05:39:18;;;;;;;3.10;2.80;;;;;;;19.97;59.86;94574.56;5117920;28;20287;-67
2023/08/01 05:41:45;;;;;;;3.50;3.30;;;;;;;20.00;59.93;94561.72;5118037;28;20196;-67
2023/08/01 05:44:14;;;;;;;2.65;2.40;;;;;;;20.03;59.49;94560.88;5117867;28;20184;-68
2023/08/01 05:46:42;;;;;;;3.00;2.60;;;;;;;20.03;59.25;94570.06;5118324;28;20286;-68
2023/08/01 05:49:14;;;;;;;3.67;2.90;;;;;;;20.10;59.24;94560.75;5117874;28;20206;-68
2023/08/01 05:51:41;;;;;;;3.15;2.85;;;;;;;20.16;59.23;94561.84;5117980;28;20194;-68
2023/08/01 05:54:08;;;;;;;3.53;2.80;;;;;;;20.23;59.46;94558.94;5118159;28;20207;-68
2023/08/01 05:56:35;;;;;;;2.70;2.40;;;;;;;20.27;59.14;94565.25;5118269;28;20531;-69
2023/08/01 05:59:03;;;;;;;3.60;3.40;;;;;;;20.33;58.55;94560.72;5117836;28;20206;-68
2023/08/01 06:01:31;;;;;;;3.10;2.83;;;;;;;20.34;58.95;94559.53;5117500;28;20192;-68
2023/08/01 06:04:00;;;;;;;3.40;2.80;;;;;;;20.39;58.96;94553.41;5118508;28;20207;-68
2023/08/01 06:06:35;;;;;;;3.00;2.80;;;;;;;20.45;58.55;94553.72;5118260;28;20211;-68
2023/08/01 06:09:03;;;;;;;3.90;2.83;;;;;;;20.48;58.41;94552.03;5117820;28;20536;-69
2023/08/01 06:11:30;;;;;;;2.80;2.60;;;;;;;20.52;57.92;94550.81;5117679;28;20187;-68
2023/08/01 06:14:01;;;;;;;4.22;2.90;;;;;;;20.60;57.80;94543.84;5117805;28;20199;-68
2023/08/01 06:16:30;;;;;;;2.90;2.70;;;;;;;20.65;57.42;94548.94;5117279;28;20212;-68
2023/08/01 06:18:59;;;;;;;2.90;2.70;;;;;;;20.69;57.51;94546.06;5117800;28;20207;-68
2023/08/01 06:21:28;;;;;;;5.18;2.70;;;;;;;20.77;56.64;94543.91;5116219;28;20203;-68
2023/08/01 06:23:59;;;;;;;2.67;2.47;;;;;;;20.83;56.57;94544.97;5117068;28;20242;-68
2023/08/01 06:26:27;;;;;;;2.60;2.50;;;;;;;20.88;56.48;94545.28;5117134;28;20552;-68
2023/08/01 06:28:57;;;;;;;2.92;2.70;;;;;;;20.92;55.51;94536.78;5117007;28;20196;-68
2023/08/01 06:31:25;;;;;;;2.90;2.70;;;;;;;20.94;55.31;94539.94;5117060;28;20196;-68
2023/08/01 06:33:53;;;;;;;3.35;2.65;;;;;;;20.96;55.39;94545.91;5116982;28;20203;-68
2023/08/01 06:36:22;;;;;;;2.70;2.50;;;;;;;21.01;55.23;94539.78;5118035;28;20187;-68
2023/08/01 06:38:50;;;;;;;3.88;2.50;;;;;;;21.02;54.39;94532.16;5116693;28;20215;-68
2023/08/01 06:41:18;;;;;;;6.03;2.60;;;;;;;21.04;54.66;94543.75;5117870;28;20195;-68
2023/08/01 06:43:45;;;;;;;2.80;2.40;;;;;;;21.06;54.83;94530.88;5116459;28;20206;-68
2023/08/01 06:46:15;;;;;;;2.78;2.50;;;;;;;21.09;54.71;94535.59;5117801;28;20231;-68
2023/08/01 06:48:44;;;;;;;2.67;2.45;;;;;;;21.15;54.19;94533.88;5116933;28;20226;-67
2023/08/01 06:51:12;;;;;;;2.55;2.35;;;;;;;21.21;54.01;94538.97;5116858;28;20192;-67
2023/08/01 06:53:42;;;;;;;3.95;2.90;;;;;;;21.22;53.86;94541.34;5117620;28;20248;-67
2023/08/01 06:56:15;;;;;;;3.28;2.45;;;;;;;21.23;54.17;94534.50;5117131;28;20203;-72
2023/08/01 06:58:44;;;;;;;2.70;2.50;;;;;;;21.28;54.17;94536.00;5116751;28;20192;-67
2023/08/01 07:01:12;;;;;;;2.60;2.33;;;;;;;21.31;53.88;94533.09;5116849;28;20195;-69
2023/08/01 07:03:40;;;;;;;2.97;2.58;;;;;;;21.36;53.84;94531.84;5116273;28;20207;-68
2023/08/01 07:06:10;;;;;;;2.60;2.40;;;;;;;21.40;53.74;94535.34;5116604;28;20212;-68
2023/08/01 07:08:38;;;;;;;4.05;2.47;;;;;;;21.47;54.02;94528.81;5116656;28;20211;-68
2023/08/01 07:11:08;;;;;;;3.35;2.60;;;;;;;21.52;54.05;94526.25;5116172;28;20215;-68
2023/08/01 07:13:41;;;;;;;2.67;2.45;;;;;;;21.51;53.50;94527.47;5116047;28;20233;-67
2023/08/01 07:16:08;;;;;;;2.72;2.50;;;;;;;21.52;53.44;94523.44;5116307;28;20195;-68
2023/08/01 07:18:36;;;;;;;4.45;3.38;;;;;;;21.55;53.33;94514.16;5116486;28;20298;-67
2023/08/01 07:21:03;;;;;;;2.83;2.55;;;;;;;21.62;53.26;94522.41;5116289;28;20203;-67
2023/08/01 07:23:33;;;;;;;2.53;2.33;;;;;;;21.69;53.51;94515.84;5116643;28;20228;-68
2023/08/01 07:26:02;;;;;;;3.13;2.80;;;;;;;21.74;53.74;94515.28;5116600;28;20212;-67
2023/08/01 07:28:32;;;;;;;3.17;2.97;;;;;;;21.79;53.71;94517.59;5116011;28;20192;-67
2023/08/01 07:31:02;;;;;;;2.88;2.67;;;;;;;21.80;53.02;94516.34;5116153;28;20317;-68
2023/08/01 07:33:33;;;;;;;2.83;2.63;;;;;;;21.81;53.42;94511.53;5115451;28;20203;-68
2023/08/01 07:36:01;;;;;;;2.75;2.55;;;;;;;21.84;53.42;94517.06;5115937;28;20227;-68
2023/08/01 07:38:31;;;;;;;3.00;2.70;;;;;;;21.86;53.41;94514.59;5116063;28;20218;-68
2023/08/01 07:41:03;;;;;;;3.20;2.90;;;;;;;21.90;53.76;94517.31;5115799;28;20205;-68
2023/08/01 07:43:34;;;;;;;3.40;3.10;;;;;;;21.90;53.11;94514.50;5115526;28;20210;-67
2023/08/01 07:46:08;;;;;;;3.40;3.10;;;;;;;21.88;53.09;94517.75;5115790;28;20231;-68
2023/08/01 07:48:35;;;;;;;3.10;2.80;;;;;;;21.92;53.33;94506.44;5115671;28;20605;-68
2023/08/01 07:51:05;;;;;;;3.13;2.70;;;;;;;22.00;53.12;94518.25;5115835;28;20248;-67
2023/08/01 07:53:36;;;;;;;3.08;2.70;;;;;;;22.15;52.97;94513.09;5115591;28;20195;-68
2023/08/01 07:56:03;;;;;;;3.90;2.70;;;;;;;22.28;52.99;94513.94;5115963;28;20607;-68
2023/08/01 07:58:29;;;;;;;3.40;3.10;;;;;;;22.36;52.83;94518.13;5115831;28;20195;-69
2023/08/01 08:00:59;;;;;;;3.08;2.70;;;;;;;22.44;52.75;94513.13;5115189;28;20200;-68
2023/08/01 08:03:32;;;;;;;2.80;2.60;;;;;;;22.53;52.90;94505.63;5115123;28;20187;-68
2023/08/01 08:06:03;;;;;;;3.15;2.63;;;;;;;22.61;52.64;94505.44;5116025;28;20223;-70
2023/08/01 08:08:33;;;;;;;3.65;2.63;;;;;;;22.68;52.49;94491.97;5115097;28;20650;-67
2023/08/01 08:11:04;;;;;;;3.08;2.80;;;;;;;22.72;52.16;94500.28;5115669;28;20680;-68
2023/08/01 08:13:33;;;;;;;3.30;3.00;;;;;;;22.74;52.15;94489.41;5115842;28;20184;-68
2023/08/01 08:16:01;;;;;;;2.83;2.63;;;;;;;22.92;51.75;94489.69;5115504;28;20215;-68
2023/08/01 08:18:33;;;;;;;2.92;2.67;;;;;;;23.10;51.59;94486.34;5115333;28;20543;-68
2023/08/01 08:21:03;;;;;;;5.00;3.00;;;;;;;23.22;51.43;94485.56;5115706;28;20221;-67
2023/08/01 08:23:31;;;;;;;2.92;2.63;;;;;;;23.40;50.88;94484.22;5115103;28;20338;-67
2023/08/01 08:26:01;;;;;;;3.45;3.15;;;;;;;23.57;50.59;94482.88;5115517;28;20216;-68
2023/08/01 08:28:34;;;;;;;3.80;2.92;;;;;;;23.67;49.98;94481.75;5116005;28;20225;-68
2023/08/01 08:31:03;;;;;;;3.35;2.90;;;;;;;23.77;49.83;94474.19;5115224;28;20199;-68
2023/08/01 08:33:32;;;;;;;3.33;3.05;;;;;;;23.86;50.00;94476.34;5114724;28;20202;-67
2023/08/01 08:36:01;;;;;;;3.30;3.10;;;;;;;23.86;50.48;94476.34;5115212;28;20229;-68
2023/08/01 08:38:32;;;;;;;3.42;2.90;;;;;;;23.83;49.53;94463.94;5114873;28;20203;-67
2023/08/01 08:41:09;;;;;;;4.80;2.88;;;;;;;23.89;50.23;94462.09;5114778;28;20194;-67
2023/08/01 08:43:38;;;;;;;3.25;2.90;;;;;;;23.95;50.25;94463.09;5114098;28;20517;-67
2023/08/01 08:46:06;;;;;;;3.55;3.13;;;;;;;24.05;50.38;94461.19;5114419;28;20223;-68
2023/08/01 08:48:42;;;;;;;3.70;3.40;;;;;;;24.15;49.35;94464.88;5115179;28;20207;-68
2023/08/01 08:51:11;;;;;;;6.18;3.40;;;;;;;24.13;49.81;94456.84;5114951;28;20194;-67
2023/08/01 08:53:41;;;;;;;4.03;3.50;;;;;;;24.22;50.72;94461.78;5114452;28;20195;-67
2023/08/01 08:56:10;;;;;;;3.20;3.00;;;;;;;24.29;49.84;94453.06;5114523;28;20561;-67
2023/08/01 08:58:38;;;;;;;3.63;3.33;;;;;;;24.41;49.37;94449.47;5115161;28;20225;-67
2023/08/01 09:01:10;;;;;;;4.10;3.70;;;;;;;24.53;49.84;94449.84;5115631;28;20340;-68
2023/08/01 09:03:39;;;;;;;3.95;3.65;;;;;;;24.58;48.89;94446.44;5114433;28;20225;-67
2023/08/01 09:06:13;;;;;;;5.20;3.60;;;;;;;24.69;49.67;94435.53;5114655;28;20215;-67
2023/08/01 09:08:45;;;;;;;3.92;3.38;;;;;;;24.81;49.12;94437.50;5115001;28;20191;-67
2023/08/01 09:11:13;;;;;;;4.13;3.83;;;;;;;24.87;47.51;94434.88;5114911;28;20207;-67
2023/08/01 09:13:40;;;;;;;4.13;3.72;;;;;;;24.88;47.78;94428.78;5114505;28;20199;-68
2023/08/01 09:16:12;;;;;;;4.80;4.35;;;;;;;24.96;47.78;94432.91;5114270;28;20203;-68
2023/08/01 09:18:52;;;;;;;4.60;3.90;;;;;;;25.09;48.09;94421.53;5114519;28;20199;-67
2023/08/01 09:21:19;;;;;;;5.57;3.90;;;;;;;25.21;47.93;94423.47;5114770;28;20674;-67
2023/08/01 09:23:51;;;;;;;6.15;3.65;;;;;;;25.34;47.83;94428.22;5114954;28;20554;-68
2023/08/01 09:26:21;;;;;;;4.93;4.03;;;;;;;25.46;47.10;94418.88;5114107;28;20646;-68
2023/08/01 09:28:56;;;;;;;4.85;3.38;;;;;;;25.65;47.00;94420.50;5114411;28;20207;-67
2023/08/01 09:31:27;;;;;;;3.80;3.50;;;;;;;25.72;45.82;94419.41;5114223;28;20210;-68
2023/08/01 09:33:56;;;;;;;4.10;3.70;;;;;;;25.77;46.06;94415.97;5114718;28;20219;-68
2023/08/01 09:36:25;;;;;;;4.35;4.05;;;;;;;25.89;47.02;94412.25;5114484;28;20195;-67
2023/08/01 09:39:02;;;;;;;4.10;3.70;;;;;;;26.02;45.15;94416.97;5114166;28;20196;-67
2023/08/01 09:41:32;;;;;;;4.68;4.22;;;;;;;26.13;45.89;94420.91;5113964;28;20218;-67
2023/08/01 09:44:01;;;;;;;4.68;4.00;;;;;;;26.19;45.20;94417.47;5114525;28;20194;-67
2023/08/01 09:46:27;;;;;;;5.03;4.10;;;;;;;26.24;45.51;94414.00;5115089;28;20200;-68
2023/08/01 09:49:08;;;;;;;4.68;4.10;;;;;;;26.20;43.79;94411.34;5115224;28;20184;-68
2023/08/01 09:51:47;;;;;;;4.85;4.45;;;;;;;26.24;45.20;94409.13;5114452;28;20192;-67
2023/08/01 09:54:16;;;;;;;5.07;4.32;;;;;;;26.38;44.07;94402.06;5115592;28;20252;-68
2023/08/01 09:56:45;;;;;;;4.15;3.60;;;;;;;26.40;43.28;94394.69;5118720;28;20176;-68
2023/08/01 09:59:16;;;;;;;4.22;3.75;;;;;;;26.45;44.65;94389.66;5119037;28;20196;-67
2023/08/01 10:01:47;;;;;;;4.43;3.80;;;;;;;26.53;44.62;94377.56;5118027;28;20493;-67
2023/08/01 10:04:25;;;;;;;5.22;3.80;;;;;;;26.62;43.79;94376.78;5118773;28;20204;-68
2023/08/01 10:06:56;;;;;;;5.38;3.78;;;;;;;26.70;42.67;94380.06;5117957;28;20222;-68
2023/08/01 10:09:24;;;;;;;4.10;3.70;;;;;;;26.80;43.05;94371.09;5118545;28;20657;-68
2023/08/01 10:11:53;;;;;;;3.80;3.50;;;;;;;26.82;42.64;94365.72;5117724;28;20196;-67
2023/08/01 10:14:21;;;;;;;4.63;4.20;;;;;;;26.82;42.56;94368.53;5118706;28;20188;-67
2023/08/01 10:16:50;;;;;;;4.80;4.28;;;;;;;26.93;43.05;94370.88;5117485;28;20204;-67
2023/08/01 10:19:26;;;;;;;4.22;3.55;;;;;;;27.02;42.48;94361.59;5117269;28;20211;-67
2023/08/01 10:21:54;;;;;;;4.45;4.05;;;;;;;27.07;42.59;94361.69;5118200;28;20610;-67
2023/08/01 10:24:24;;;;;;;4.38;3.97;;;;;;;27.25;41.63;94357.25;5118174;28;20736;-67
2023/08/01 10:26:51;;;;;;;4.40;3.80;;;;;;;27.31;41.83;94350.47;5117423;28;20268;-67
2023/08/01 10:29:19;;;;;;;4.57;4.18;;;;;;;27.46;41.30;94349.75;5118354;28;20208;-67
2023/08/01 10:31:55;;;;;;;4.57;4.10;;;;;;;27.55;41.65;94338.38;5117253;28;20196;-68
2023/08/01 10:34:26;;;;;;;4.32;3.42;;;;;;;27.58;41.75;94331.75;5117457;28;20207;-67
2023/08/01 10:36:58;;;;;;;4.60;4.20;;;;;;;27.69;40.72;94336.88;5117376;28;20299;-67
2023/08/01 10:39:28;;;;;;;4.30;4.00;;;;;;;27.76;39.82;94331.66;5117242;28;20233;-68
2023/08/01 10:42:02;;;;;;;4.20;3.72;;;;;;;27.86;40.24;94326.72;5117991;28;20202;-68
2023/08/01 10:44:34;;;;;;;6.22;4.18;;;;;;;27.97;40.93;94334.66;5117339;28;20291;-67
2023/08/01 10:47:03;;;;;;;4.20;3.90;;;;;;;28.03;39.68;94325.00;5116879;28;20267;-68
2023/08/01 10:49:37;;;;;;;3.53;3.22;;;;;;;28.07;36.62;94314.25;5117083;28;20200;-68
2023/08/01 10:52:18;;;;;;;3.83;3.53;;;;;;;28.15;35.40;94311.81;5118278;28;20184;-68
2023/08/01 10:54:46;;;;;;;4.65;3.60;;;;;;;28.31;36.13;94311.34;5117588;27;20219;-68
2023/08/01 10:57:17;;;;;;;3.38;3.08;;;;;;;28.38;34.69;94306.59;5116734;28;20196;-68
2023/08/01 10:59:45;;;;;;;5.25;3.53;;;;;;;28.47;36.20;94315.81;5117384;28;20195;-68
2023/08/01 11:02:14;;;;;;;3.20;2.90;;;;;;;28.55;33.77;94304.84;5116706;28;20563;-68
2023/08/01 11:04:46;;;;;;;3.25;2.95;;;;;;;28.57;34.03;94305.13;5117660;28;20193;-68
2023/08/01 11:07:14;;;;;;;3.58;3.28;;;;;;;28.64;32.93;94293.38;5116550;28;20215;-68
2023/08/01 11:09:44;;;;;;;3.00;2.80;;;;;;;28.73;32.35;94298.97;5116514;28;20195;-68
2023/08/01 11:12:13;;;;;;;3.17;2.97;;;;;;;28.77;32.20;94287.41;5117153;28;20183;-68
2023/08/01 11:14:42;;;;;;;3.50;3.20;;;;;;;28.86;30.86;94286.50;5116561;28;20256;-68
2023/08/01 11:17:15;;;;;;;3.30;3.00;;;;;;;28.93;31.19;94288.94;5116490;28;20517;-68
2023/08/01 11:19:51;;;;;;;2.80;2.60;;;;;;;28.91;30.12;94272.44;5116219;28;20595;-68
2023/08/01 11:22:19;;;;;;;3.45;2.70;;;;;;;28.97;30.29;94278.94;5116749;28;20297;-67
2023/08/01 11:24:51;;;;;;;3.00;2.80;;;;;;;29.08;29.09;94280.44;5115894;28;20250;-68
2023/08/01 11:27:19;;;;;;;2.83;2.63;;;;;;;29.10;28.64;94281.50;5116167;28;20211;-67
2023/08/01 11:29:48;;;;;;;3.20;2.90;;;;;;;29.13;30.65;94274.06;5115991;28;20195;-68
2023/08/01 11:32:17;;;;;;;3.20;2.90;;;;;;;29.16;29.10;94270.22;5116302;28;20273;-67
2023/08/01 11:34:47;;;;;;;2.60;2.40;;;;;;;29.13;29.31;94260.66;5117126;28;20196;-68
2023/08/01 11:37:16;;;;;;;2.95;2.65;;;;;;;29.17;28.08;94266.91;5115771;28;20585;-68
2023/08/01 11:39:46;;;;;;;2.83;2.63;;;;;;;29.24;27.79;94262.88;5116959;28;20194;-68
2023/08/01 11:42:17;;;;;;;2.67;2.47;;;;;;;29.31;28.23;94256.78;5116525;28;20209;-68
2023/08/01 11:44:45;;;;;;;2.80;2.60;;;;;;;29.31;27.78;94259.63;5115577;28;20196;-68